sensor_id;sensor_type;location;lat;lon;timestamp;P1;durP1;ratioP1;P2;durP2;ratioP2
62353;SDS011;48391;49.184;2.418;2022-11-20T00:01:17;1.65;;;1.55;;
62353;SDS011;48391;49.184;2.418;2022-11-20T00:03:43;2.83;;;1.35;;
62353;SDS011;48391;49.184;2.418;2022-11-20T00:06:13;1.50;;;0.80;;
62353;SDS011;48391;49.184;2.418;2022-11-20T00:08:39;2.60;;;1.90;;
62353;SDS011;48391;49.184;2.418;2022-11-20T00:11:06;2.40;;;1.85;;
62353;SDS011;48391;49.184;2.418;2022-11-20T00:13:32;3.85;;;2.05;;
62353;SDS011;48391;49.184;2.418;2022-11-20T00:15:59;5.28;;;2.58;;
62353;SDS011;48391;49.184;2.418;2022-11-20T00:18:25;1.77;;;1.30;;
62353;SDS011;48391;49.184;2.418;2022-11-20T00:20:51;2.58;;;1.92;;
62353;SDS011;48391;49.184;2.418;2022-11-20T00:23:17;4.43;;;2.65;;
62353;SDS011;48391;49.184;2.418;2022-11-20T00:25:43;4.38;;;2.45;;
62353;SDS011;48391;49.184;2.418;2022-11-20T00:28:10;3.80;;;2.45;;
62353;SDS011;48391;49.184;2.418;2022-11-20T00:30:36;4.43;;;2.42;;
62353;SDS011;48391;49.184;2.418;2022-11-20T00:33:02;2.55;;;2.10;;
62353;SDS011;48391;49.184;2.418;2022-11-20T00:35:28;3.58;;;1.60;;
62353;SDS011;48391;49.184;2.418;2022-11-20T00:37:54;3.22;;;1.70;;
62353;SDS011;48391;49.184;2.418;2022-11-20T00:40:20;3.20;;;2.13;;
62353;SDS011;48391;49.184;2.418;2022-11-20T00:42:46;3.53;;;2.40;;
62353;SDS011;48391;49.184;2.418;2022-11-20T00:45:12;3.35;;;2.03;;
62353;SDS011;48391;49.184;2.418;2022-11-20T00:47:38;4.00;;;2.28;;
62353;SDS011;48391;49.184;2.418;2022-11-20T00:50:04;2.72;;;2.35;;
62353;SDS011;48391;49.184;2.418;2022-11-20T00:52:30;4.93;;;3.42;;
62353;SDS011;48391;49.184;2.418;2022-11-20T00:54:56;2.85;;;2.13;;
62353;SDS011;48391;49.184;2.418;2022-11-20T00:57:22;6.60;;;3.03;;
62353;SDS011;48391;49.184;2.418;2022-11-20T00:59:48;4.57;;;2.40;;
62353;SDS011;48391;49.184;2.418;2022-11-20T01:02:14;5.78;;;2.47;;
62353;SDS011;48391;49.184;2.418;2022-11-20T01:04:41;3.80;;;1.73;;
62353;SDS011;48391;49.184;2.418;2022-11-20T01:07:07;4.10;;;1.80;;
62353;SDS011;48391;49.184;2.418;2022-11-20T01:09:33;2.30;;;1.60;;
62353;SDS011;48391;49.184;2.418;2022-11-20T01:11:59;4.15;;;1.90;;
62353;SDS011;48391;49.184;2.418;2022-11-20T01:14:25;7.75;;;2.40;;
62353;SDS011;48391;49.184;2.418;2022-11-20T01:16:51;1.65;;;1.25;;
62353;SDS011;48391;49.184;2.418;2022-11-20T01:19:18;3.83;;;2.13;;
62353;SDS011;48391;49.184;2.418;2022-11-20T01:21:45;3.58;;;1.80;;
62353;SDS011;48391;49.184;2.418;2022-11-20T01:24:12;2.60;;;1.58;;
62353;SDS011;48391;49.184;2.418;2022-11-20T01:26:40;3.95;;;1.90;;
62353;SDS011;48391;49.184;2.418;2022-11-20T01:29:07;2.58;;;1.67;;
62353;SDS011;48391;49.184;2.418;2022-11-20T01:31:36;2.80;;;1.45;;
62353;SDS011;48391;49.184;2.418;2022-11-20T01:34:06;3.13;;;1.67;;
62353;SDS011;48391;49.184;2.418;2022-11-20T01:36:32;1.83;;;1.50;;
62353;SDS011;48391;49.184;2.418;2022-11-20T01:39:00;1.20;;;1.10;;
62353;SDS011;48391;49.184;2.418;2022-11-20T01:41:27;0.98;;;0.88;;
62353;SDS011;48391;49.184;2.418;2022-11-20T01:44:13;2.97;;;1.85;;
62353;SDS011;48391;49.184;2.418;2022-11-20T01:46:40;2.92;;;1.73;;
62353;SDS011;48391;49.184;2.418;2022-11-20T01:49:18;3.63;;;2.30;;
62353;SDS011;48391;49.184;2.418;2022-11-20T01:51:47;1.58;;;1.20;;
62353;SDS011;48391;49.184;2.418;2022-11-20T01:54:16;2.78;;;1.55;;
62353;SDS011;48391;49.184;2.418;2022-11-20T01:56:43;3.25;;;1.15;;
62353;SDS011;48391;49.184;2.418;2022-11-20T01:59:10;1.27;;;0.88;;
62353;SDS011;48391;49.184;2.418;2022-11-20T02:01:37;6.07;;;1.85;;
62353;SDS011;48391;49.184;2.418;2022-11-20T02:04:04;4.35;;;2.40;;
62353;SDS011;48391;49.184;2.418;2022-11-20T02:06:44;3.10;;;2.38;;
62353;SDS011;48391;49.184;2.418;2022-11-20T02:09:11;2.35;;;1.13;;
62353;SDS011;48391;49.184;2.418;2022-11-20T02:11:37;3.35;;;1.17;;
62353;SDS011;48391;49.184;2.418;2022-11-20T02:14:03;0.82;;;0.70;;
62353;SDS011;48391;49.184;2.418;2022-11-20T02:16:34;1.92;;;1.27;;
62353;SDS011;48391;49.184;2.418;2022-11-20T02:19:01;1.63;;;1.23;;
62353;SDS011;48391;49.184;2.418;2022-11-20T02:26:22;2.80;;;1.15;;
62353;SDS011;48391;49.184;2.418;2022-11-20T02:28:49;3.60;;;1.08;;
62353;SDS011;48391;49.184;2.418;2022-11-20T02:31:16;1.73;;;1.63;;
62353;SDS011;48391;49.184;2.418;2022-11-20T02:33:42;1.33;;;0.95;;
62353;SDS011;48391;49.184;2.418;2022-11-20T02:36:08;2.45;;;1.30;;
62353;SDS011;48391;49.184;2.418;2022-11-20T02:38:36;3.50;;;1.20;;
62353;SDS011;48391;49.184;2.418;2022-11-20T02:41:03;2.70;;;1.63;;
62353;SDS011;48391;49.184;2.418;2022-11-20T02:43:29;2.80;;;1.10;;
62353;SDS011;48391;49.184;2.418;2022-11-20T02:45:55;1.02;;;0.80;;
62353;SDS011;48391;49.184;2.418;2022-11-20T02:48:21;1.92;;;1.23;;
62353;SDS011;48391;49.184;2.418;2022-11-20T02:50:47;1.65;;;1.25;;
62353;SDS011;48391;49.184;2.418;2022-11-20T02:53:13;0.75;;;0.50;;
62353;SDS011;48391;49.184;2.418;2022-11-20T02:55:39;2.15;;;0.82;;
62353;SDS011;48391;49.184;2.418;2022-11-20T02:58:05;0.70;;;0.40;;
62353;SDS011;48391;49.184;2.418;2022-11-20T03:00:31;1.70;;;0.63;;
62353;SDS011;48391;49.184;2.418;2022-11-20T03:02:57;1.25;;;1.02;;
62353;SDS011;48391;49.184;2.418;2022-11-20T03:05:23;1.25;;;0.57;;
62353;SDS011;48391;49.184;2.418;2022-11-20T03:07:49;1.38;;;0.50;;
62353;SDS011;48391;49.184;2.418;2022-11-20T03:10:15;1.55;;;0.50;;
62353;SDS011;48391;49.184;2.418;2022-11-20T03:12:41;1.08;;;0.50;;
62353;SDS011;48391;49.184;2.418;2022-11-20T03:15:07;3.30;;;1.30;;
62353;SDS011;48391;49.184;2.418;2022-11-20T03:17:33;2.28;;;1.08;;
62353;SDS011;48391;49.184;2.418;2022-11-20T03:19:59;1.77;;;0.98;;
62353;SDS011;48391;49.184;2.418;2022-11-20T03:22:26;1.30;;;0.82;;
62353;SDS011;48391;49.184;2.418;2022-11-20T03:24:54;1.63;;;0.60;;
62353;SDS011;48391;49.184;2.418;2022-11-20T03:27:20;1.25;;;0.70;;
62353;SDS011;48391;49.184;2.418;2022-11-20T03:29:46;1.10;;;0.80;;
62353;SDS011;48391;49.184;2.418;2022-11-20T03:32:12;1.15;;;0.68;;
62353;SDS011;48391;49.184;2.418;2022-11-20T03:34:38;0.57;;;0.45;;
62353;SDS011;48391;49.184;2.418;2022-11-20T03:37:04;0.95;;;0.60;;
62353;SDS011;48391;49.184;2.418;2022-11-20T03:39:30;1.05;;;0.80;;
62353;SDS011;48391;49.184;2.418;2022-11-20T03:41:56;0.47;;;0.35;;
62353;SDS011;48391;49.184;2.418;2022-11-20T03:44:22;1.33;;;0.30;;
62353;SDS011;48391;49.184;2.418;2022-11-20T03:46:48;0.65;;;0.57;;
62353;SDS011;48391;49.184;2.418;2022-11-20T03:49:14;0.70;;;0.43;;
62353;SDS011;48391;49.184;2.418;2022-11-20T03:51:40;1.20;;;0.85;;
62353;SDS011;48391;49.184;2.418;2022-11-20T03:54:06;0.68;;;0.40;;
62353;SDS011;48391;49.184;2.418;2022-11-20T03:56:34;1.50;;;0.75;;
62353;SDS011;48391;49.184;2.418;2022-11-20T03:59:00;0.77;;;0.40;;
62353;SDS011;48391;49.184;2.418;2022-11-20T04:01:27;0.93;;;0.55;;
62353;SDS011;48391;49.184;2.418;2022-11-20T04:03:54;0.30;;;0.30;;
62353;SDS011;48391;49.184;2.418;2022-11-20T04:06:21;0.50;;;0.28;;
62353;SDS011;48391;49.184;2.418;2022-11-20T04:08:48;1.55;;;0.40;;
62353;SDS011;48391;49.184;2.418;2022-11-20T04:11:21;0.60;;;0.60;;
62353;SDS011;48391;49.184;2.418;2022-11-20T04:13:49;0.38;;;0.20;;
62353;SDS011;48391;49.184;2.418;2022-11-20T04:16:15;1.23;;;0.50;;
62353;SDS011;48391;49.184;2.418;2022-11-20T04:18:41;0.75;;;0.30;;
62353;SDS011;48391;49.184;2.418;2022-11-20T04:21:08;0.40;;;0.35;;
62353;SDS011;48391;49.184;2.418;2022-11-20T04:23:34;0.40;;;0.40;;
62353;SDS011;48391;49.184;2.418;2022-11-20T04:26:04;1.00;;;0.50;;
62353;SDS011;48391;49.184;2.418;2022-11-20T04:28:30;0.88;;;0.68;;
62353;SDS011;48391;49.184;2.418;2022-11-20T04:31:03;1.00;;;0.75;;
62353;SDS011;48391;49.184;2.418;2022-11-20T04:33:29;0.82;;;0.68;;
62353;SDS011;48391;49.184;2.418;2022-11-20T04:35:59;0.63;;;0.45;;
62353;SDS011;48391;49.184;2.418;2022-11-20T04:38:25;3.92;;;1.20;;
62353;SDS011;48391;49.184;2.418;2022-11-20T04:40:55;0.40;;;0.40;;
62353;SDS011;48391;49.184;2.418;2022-11-20T04:43:21;1.35;;;0.82;;
62353;SDS011;48391;49.184;2.418;2022-11-20T04:45:50;1.02;;;0.70;;
62353;SDS011;48391;49.184;2.418;2022-11-20T04:48:16;0.55;;;0.40;;
62353;SDS011;48391;49.184;2.418;2022-11-20T04:50:42;1.27;;;0.57;;
62353;SDS011;48391;49.184;2.418;2022-11-20T04:53:08;0.55;;;0.45;;
62353;SDS011;48391;49.184;2.418;2022-11-20T04:55:34;2.15;;;1.13;;
62353;SDS011;48391;49.184;2.418;2022-11-20T04:58:00;0.28;;;0.25;;
62353;SDS011;48391;49.184;2.418;2022-11-20T05:00:26;0.60;;;0.30;;
62353;SDS011;48391;49.184;2.418;2022-11-20T05:02:52;0.82;;;0.40;;
62353;SDS011;48391;49.184;2.418;2022-11-20T05:05:18;0.63;;;0.45;;
62353;SDS011;48391;49.184;2.418;2022-11-20T05:07:44;1.38;;;0.80;;
62353;SDS011;48391;49.184;2.418;2022-11-20T05:10:10;0.85;;;0.55;;
62353;SDS011;48391;49.184;2.418;2022-11-20T05:12:36;0.60;;;0.60;;
62353;SDS011;48391;49.184;2.418;2022-11-20T05:15:02;0.75;;;0.52;;
62353;SDS011;48391;49.184;2.418;2022-11-20T05:17:28;0.68;;;0.40;;
62353;SDS011;48391;49.184;2.418;2022-11-20T05:19:54;0.73;;;0.47;;
62353;SDS011;48391;49.184;2.418;2022-11-20T05:22:21;2.15;;;0.70;;
62353;SDS011;48391;49.184;2.418;2022-11-20T05:24:47;1.10;;;0.65;;
62353;SDS011;48391;49.184;2.418;2022-11-20T05:27:13;0.30;;;0.20;;
62353;SDS011;48391;49.184;2.418;2022-11-20T05:29:39;2.40;;;1.42;;
62353;SDS011;48391;49.184;2.418;2022-11-20T05:32:05;0.50;;;0.38;;
62353;SDS011;48391;49.184;2.418;2022-11-20T05:34:33;0.38;;;0.20;;
62353;SDS011;48391;49.184;2.418;2022-11-20T05:36:59;2.35;;;0.50;;
62353;SDS011;48391;49.184;2.418;2022-11-20T05:39:25;1.23;;;0.60;;
62353;SDS011;48391;49.184;2.418;2022-11-20T05:41:51;0.60;;;0.52;;
62353;SDS011;48391;49.184;2.418;2022-11-20T05:44:37;1.17;;;0.40;;
62353;SDS011;48391;49.184;2.418;2022-11-20T05:47:04;0.93;;;0.60;;
62353;SDS011;48391;49.184;2.418;2022-11-20T05:49:30;0.30;;;0.30;;
62353;SDS011;48391;49.184;2.418;2022-11-20T05:51:55;1.45;;;0.40;;
62353;SDS011;48391;49.184;2.418;2022-11-20T05:54:21;1.35;;;0.43;;
62353;SDS011;48391;49.184;2.418;2022-11-20T05:56:48;0.85;;;0.50;;
62353;SDS011;48391;49.184;2.418;2022-11-20T05:59:13;0.73;;;0.60;;
62353;SDS011;48391;49.184;2.418;2022-11-20T06:01:39;0.65;;;0.43;;
62353;SDS011;48391;49.184;2.418;2022-11-20T06:04:05;1.55;;;0.80;;
62353;SDS011;48391;49.184;2.418;2022-11-20T06:06:32;0.70;;;0.60;;
62353;SDS011;48391;49.184;2.418;2022-11-20T06:08:58;0.68;;;0.40;;
62353;SDS011;48391;49.184;2.418;2022-11-20T06:11:24;0.38;;;0.38;;
62353;SDS011;48391;49.184;2.418;2022-11-20T06:13:50;0.80;;;0.63;;
62353;SDS011;48391;49.184;2.418;2022-11-20T06:16:17;0.35;;;0.35;;
62353;SDS011;48391;49.184;2.418;2022-11-20T06:18:44;1.20;;;0.57;;
62353;SDS011;48391;49.184;2.418;2022-11-20T06:23:36;2.25;;;1.02;;
62353;SDS011;48391;49.184;2.418;2022-11-20T06:26:03;1.05;;;1.05;;
62353;SDS011;48391;49.184;2.418;2022-11-20T06:28:29;0.65;;;0.60;;
62353;SDS011;48391;49.184;2.418;2022-11-20T06:30:55;1.17;;;0.82;;
62353;SDS011;48391;49.184;2.418;2022-11-20T06:33:21;1.55;;;0.80;;
62353;SDS011;48391;49.184;2.418;2022-11-20T06:35:47;1.20;;;0.93;;
62353;SDS011;48391;49.184;2.418;2022-11-20T06:38:13;1.30;;;1.10;;
62353;SDS011;48391;49.184;2.418;2022-11-20T06:40:40;1.90;;;0.75;;
62353;SDS011;48391;49.184;2.418;2022-11-20T06:43:06;1.42;;;0.82;;
62353;SDS011;48391;49.184;2.418;2022-11-20T06:45:32;1.17;;;0.43;;
62353;SDS011;48391;49.184;2.418;2022-11-20T06:47:58;1.52;;;0.68;;
62353;SDS011;48391;49.184;2.418;2022-11-20T06:50:24;1.02;;;0.93;;
62353;SDS011;48391;49.184;2.418;2022-11-20T06:52:50;1.25;;;0.70;;
62353;SDS011;48391;49.184;2.418;2022-11-20T06:55:16;0.77;;;0.55;;
62353;SDS011;48391;49.184;2.418;2022-11-20T06:57:42;0.60;;;0.60;;
62353;SDS011;48391;49.184;2.418;2022-11-20T07:00:08;0.60;;;0.30;;
62353;SDS011;48391;49.184;2.418;2022-11-20T07:02:34;1.30;;;0.70;;
62353;SDS011;48391;49.184;2.418;2022-11-20T07:05:00;0.88;;;0.38;;
62353;SDS011;48391;49.184;2.418;2022-11-20T07:07:27;0.50;;;0.40;;
62353;SDS011;48391;49.184;2.418;2022-11-20T07:09:53;0.68;;;0.47;;
62353;SDS011;48391;49.184;2.418;2022-11-20T07:12:20;1.13;;;0.52;;
62353;SDS011;48391;49.184;2.418;2022-11-20T07:14:46;1.10;;;0.70;;
62353;SDS011;48391;49.184;2.418;2022-11-20T07:17:12;1.65;;;0.90;;
62353;SDS011;48391;49.184;2.418;2022-11-20T07:19:38;0.63;;;0.40;;
62353;SDS011;48391;49.184;2.418;2022-11-20T07:22:07;0.60;;;0.50;;
62353;SDS011;48391;49.184;2.418;2022-11-20T07:24:34;0.40;;;0.40;;
62353;SDS011;48391;49.184;2.418;2022-11-20T07:27:00;0.88;;;0.63;;
62353;SDS011;48391;49.184;2.418;2022-11-20T07:29:26;0.50;;;0.30;;
62353;SDS011;48391;49.184;2.418;2022-11-20T07:31:52;0.73;;;0.50;;
62353;SDS011;48391;49.184;2.418;2022-11-20T07:34:20;0.75;;;0.75;;
62353;SDS011;48391;49.184;2.418;2022-11-20T07:36:46;0.82;;;0.70;;
62353;SDS011;48391;49.184;2.418;2022-11-20T07:39:12;1.02;;;0.70;;
62353;SDS011;48391;49.184;2.418;2022-11-20T07:41:38;3.33;;;1.25;;
62353;SDS011;48391;49.184;2.418;2022-11-20T07:44:04;2.08;;;1.02;;
62353;SDS011;48391;49.184;2.418;2022-11-20T07:46:30;0.80;;;0.57;;
62353;SDS011;48391;49.184;2.418;2022-11-20T07:48:56;2.83;;;0.85;;
62353;SDS011;48391;49.184;2.418;2022-11-20T07:51:22;1.30;;;0.47;;
62353;SDS011;48391;49.184;2.418;2022-11-20T07:53:50;0.60;;;0.40;;
62353;SDS011;48391;49.184;2.418;2022-11-20T07:56:16;0.80;;;0.60;;
62353;SDS011;48391;49.184;2.418;2022-11-20T07:58:42;0.93;;;0.70;;
62353;SDS011;48391;49.184;2.418;2022-11-20T08:01:08;1.17;;;0.47;;
62353;SDS011;48391;49.184;2.418;2022-11-20T08:03:34;2.50;;;0.95;;
62353;SDS011;48391;49.184;2.418;2022-11-20T08:06:02;1.42;;;0.90;;
62353;SDS011;48391;49.184;2.418;2022-11-20T08:08:28;1.65;;;0.93;;
62353;SDS011;48391;49.184;2.418;2022-11-20T08:10:57;0.93;;;0.85;;
62353;SDS011;48391;49.184;2.418;2022-11-20T08:13:42;2.47;;;1.20;;
62353;SDS011;48391;49.184;2.418;2022-11-20T08:16:27;2.97;;;1.48;;
62353;SDS011;48391;49.184;2.418;2022-11-20T08:18:53;6.45;;;2.45;;
62353;SDS011;48391;49.184;2.418;2022-11-20T08:21:19;3.13;;;1.48;;
62353;SDS011;48391;49.184;2.418;2022-11-20T08:23:47;2.25;;;0.95;;
62353;SDS011;48391;49.184;2.418;2022-11-20T08:26:13;0.90;;;0.63;;
62353;SDS011;48391;49.184;2.418;2022-11-20T08:28:39;1.27;;;0.95;;
62353;SDS011;48391;49.184;2.418;2022-11-20T08:31:05;1.02;;;0.75;;
62353;SDS011;48391;49.184;2.418;2022-11-20T08:33:31;2.42;;;1.55;;
62353;SDS011;48391;49.184;2.418;2022-11-20T08:36:03;5.32;;;1.40;;
62353;SDS011;48391;49.184;2.418;2022-11-20T08:38:30;3.13;;;1.30;;
62353;SDS011;48391;49.184;2.418;2022-11-20T08:41:00;2.40;;;1.48;;
62353;SDS011;48391;49.184;2.418;2022-11-20T08:43:45;2.65;;;1.58;;
62353;SDS011;48391;49.184;2.418;2022-11-20T08:46:11;2.55;;;1.15;;
62353;SDS011;48391;49.184;2.418;2022-11-20T08:48:37;2.33;;;1.27;;
62353;SDS011;48391;49.184;2.418;2022-11-20T08:51:03;1.42;;;1.30;;
62353;SDS011;48391;49.184;2.418;2022-11-20T08:53:29;1.85;;;1.20;;
62353;SDS011;48391;49.184;2.418;2022-11-20T08:55:56;12.88;;;1.70;;
62353;SDS011;48391;49.184;2.418;2022-11-20T08:58:22;7.05;;;0.98;;
62353;SDS011;48391;49.184;2.418;2022-11-20T09:00:48;2.83;;;1.60;;
62353;SDS011;48391;49.184;2.418;2022-11-20T09:03:14;2.05;;;0.88;;
62353;SDS011;48391;49.184;2.418;2022-11-20T09:05:40;3.65;;;1.05;;
62353;SDS011;48391;49.184;2.418;2022-11-20T09:08:07;3.83;;;1.25;;
62353;SDS011;48391;49.184;2.418;2022-11-20T09:10:33;2.40;;;1.65;;
62353;SDS011;48391;49.184;2.418;2022-11-20T09:13:00;1.90;;;0.93;;
62353;SDS011;48391;49.184;2.418;2022-11-20T09:15:26;3.85;;;1.23;;
62353;SDS011;48391;49.184;2.418;2022-11-20T09:17:53;4.65;;;1.42;;
62353;SDS011;48391;49.184;2.418;2022-11-20T09:20:19;3.00;;;1.20;;
62353;SDS011;48391;49.184;2.418;2022-11-20T09:22:45;1.15;;;1.00;;
62353;SDS011;48391;49.184;2.418;2022-11-20T09:25:11;2.03;;;1.30;;
62353;SDS011;48391;49.184;2.418;2022-11-20T09:27:37;2.30;;;1.48;;
62353;SDS011;48391;49.184;2.418;2022-11-20T09:30:04;5.35;;;1.70;;
62353;SDS011;48391;49.184;2.418;2022-11-20T09:32:30;3.47;;;0.95;;
62353;SDS011;48391;49.184;2.418;2022-11-20T09:34:56;5.78;;;2.35;;
62353;SDS011;48391;49.184;2.418;2022-11-20T09:37:22;1.42;;;0.82;;
62353;SDS011;48391;49.184;2.418;2022-11-20T09:39:48;1.80;;;0.65;;
62353;SDS011;48391;49.184;2.418;2022-11-20T09:49:55;4.35;;;1.80;;
62353;SDS011;48391;49.184;2.418;2022-11-20T09:55:10;2.42;;;1.35;;
62353;SDS011;48391;49.184;2.418;2022-11-20T09:57:37;3.38;;;1.55;;
62353;SDS011;48391;49.184;2.418;2022-11-20T10:00:05;8.13;;;2.00;;
62353;SDS011;48391;49.184;2.418;2022-11-20T10:02:36;1.58;;;1.27;;
62353;SDS011;48391;49.184;2.418;2022-11-20T10:05:11;3.05;;;1.38;;
62353;SDS011;48391;49.184;2.418;2022-11-20T10:10:14;1.27;;;1.17;;
62353;SDS011;48391;49.184;2.418;2022-11-20T10:20:23;2.28;;;1.35;;
62353;SDS011;48391;49.184;2.418;2022-11-20T10:28:10;1.52;;;1.20;;
62353;SDS011;48391;49.184;2.418;2022-11-20T10:30:42;2.05;;;1.75;;
62353;SDS011;48391;49.184;2.418;2022-11-20T10:35:44;2.25;;;1.98;;
62353;SDS011;48391;49.184;2.418;2022-11-20T10:38:28;2.33;;;1.15;;
62353;SDS011;48391;49.184;2.418;2022-11-20T10:46:56;2.63;;;2.13;;
62353;SDS011;48391;49.184;2.418;2022-11-20T10:49:22;2.03;;;1.52;;
62353;SDS011;48391;49.184;2.418;2022-11-20T10:54:42;3.70;;;1.88;;
62353;SDS011;48391;49.184;2.418;2022-11-20T10:57:23;1.63;;;1.30;;
62353;SDS011;48391;49.184;2.418;2022-11-20T10:59:54;2.35;;;2.13;;
62353;SDS011;48391;49.184;2.418;2022-11-20T11:02:22;3.08;;;2.35;;
62353;SDS011;48391;49.184;2.418;2022-11-20T11:04:52;3.20;;;2.42;;
62353;SDS011;48391;49.184;2.418;2022-11-20T11:09:54;1.55;;;1.40;;
62353;SDS011;48391;49.184;2.418;2022-11-20T11:12:21;5.03;;;1.90;;
62353;SDS011;48391;49.184;2.418;2022-11-20T11:14:48;3.75;;;2.50;;
62353;SDS011;48391;49.184;2.418;2022-11-20T11:17:26;2.67;;;2.15;;
62353;SDS011;48391;49.184;2.418;2022-11-20T11:22:24;2.47;;;1.33;;
62353;SDS011;48391;49.184;2.418;2022-11-20T11:24:53;1.73;;;1.40;;
62353;SDS011;48391;49.184;2.418;2022-11-20T11:27:19;1.02;;;0.90;;
62353;SDS011;48391;49.184;2.418;2022-11-20T11:29:45;3.00;;;1.85;;
62353;SDS011;48391;49.184;2.418;2022-11-20T11:32:13;5.45;;;1.63;;
62353;SDS011;48391;49.184;2.418;2022-11-20T11:34:39;3.78;;;2.10;;
62353;SDS011;48391;49.184;2.418;2022-11-20T11:37:10;4.20;;;2.13;;
62353;SDS011;48391;49.184;2.418;2022-11-20T11:39:38;3.75;;;1.92;;
62353;SDS011;48391;49.184;2.418;2022-11-20T11:42:07;2.42;;;1.92;;
62353;SDS011;48391;49.184;2.418;2022-11-20T11:44:36;2.35;;;1.80;;
62353;SDS011;48391;49.184;2.418;2022-11-20T11:47:25;5.70;;;2.72;;
62353;SDS011;48391;49.184;2.418;2022-11-20T11:55:24;4.07;;;1.95;;
62353;SDS011;48391;49.184;2.418;2022-11-20T12:00:18;3.45;;;2.67;;
62353;SDS011;48391;49.184;2.418;2022-11-20T12:05:18;2.88;;;2.60;;
62353;SDS011;48391;49.184;2.418;2022-11-20T12:10:33;3.53;;;2.47;;
62353;SDS011;48391;49.184;2.418;2022-11-20T12:13:23;2.95;;;2.45;;
62353;SDS011;48391;49.184;2.418;2022-11-20T12:15:46;5.97;;;2.25;;
62353;SDS011;48391;49.184;2.418;2022-11-20T12:18:17;2.33;;;1.75;;
62353;SDS011;48391;49.184;2.418;2022-11-20T12:23:30;3.47;;;2.22;;
62353;SDS011;48391;49.184;2.418;2022-11-20T12:26:03;3.25;;;1.90;;
62353;SDS011;48391;49.184;2.418;2022-11-20T12:44:21;2.13;;;1.90;;
62353;SDS011;48391;49.184;2.418;2022-11-20T12:57:33;1.50;;;1.33;;
62353;SDS011;48391;49.184;2.418;2022-11-20T13:05:18;1.30;;;1.17;;
62353;SDS011;48391;49.184;2.418;2022-11-20T13:07:44;2.83;;;2.58;;
62353;SDS011;48391;49.184;2.418;2022-11-20T13:10:16;2.30;;;1.58;;
62353;SDS011;48391;49.184;2.418;2022-11-20T13:12:49;1.70;;;1.60;;
62353;SDS011;48391;49.184;2.418;2022-11-20T13:17:54;5.72;;;2.70;;
62353;SDS011;48391;49.184;2.418;2022-11-20T13:20:22;4.00;;;2.08;;
62353;SDS011;48391;49.184;2.418;2022-11-20T13:22:51;2.35;;;1.40;;
62353;SDS011;48391;49.184;2.418;2022-11-20T13:25:23;2.35;;;1.55;;
62353;SDS011;48391;49.184;2.418;2022-11-20T13:27:49;1.30;;;1.20;;
62353;SDS011;48391;49.184;2.418;2022-11-20T13:30:17;1.60;;;1.25;;
62353;SDS011;48391;49.184;2.418;2022-11-20T13:35:26;2.72;;;1.73;;
62353;SDS011;48391;49.184;2.418;2022-11-20T13:40:22;3.15;;;1.65;;
62353;SDS011;48391;49.184;2.418;2022-11-20T13:42:54;0.88;;;0.88;;
62353;SDS011;48391;49.184;2.418;2022-11-20T13:45:26;0.75;;;0.65;;
62353;SDS011;48391;49.184;2.418;2022-11-20T13:47:52;1.65;;;0.90;;
62353;SDS011;48391;49.184;2.418;2022-11-20T13:50:19;3.13;;;1.88;;
62353;SDS011;48391;49.184;2.418;2022-11-20T13:52:51;3.75;;;2.17;;
62353;SDS011;48391;49.184;2.418;2022-11-20T14:00:32;1.90;;;1.20;;
62353;SDS011;48391;49.184;2.418;2022-11-20T14:02:59;1.60;;;1.50;;
62353;SDS011;48391;49.184;2.418;2022-11-20T14:05:34;9.50;;;1.42;;
62353;SDS011;48391;49.184;2.418;2022-11-20T14:08:03;2.45;;;1.80;;
62353;SDS011;48391;49.184;2.418;2022-11-20T14:10:30;1.80;;;1.10;;
62353;SDS011;48391;49.184;2.418;2022-11-20T14:12:56;1.10;;;1.00;;
62353;SDS011;48391;49.184;2.418;2022-11-20T14:15:32;2.13;;;1.33;;
62353;SDS011;48391;49.184;2.418;2022-11-20T14:17:58;1.00;;;1.00;;
62353;SDS011;48391;49.184;2.418;2022-11-20T14:20:29;1.55;;;1.45;;
62353;SDS011;48391;49.184;2.418;2022-11-20T14:22:56;1.67;;;0.60;;
62353;SDS011;48391;49.184;2.418;2022-11-20T14:25:23;1.75;;;1.50;;
62353;SDS011;48391;49.184;2.418;2022-11-20T14:27:56;1.73;;;0.90;;
62353;SDS011;48391;49.184;2.418;2022-11-20T14:30:24;2.42;;;1.40;;
62353;SDS011;48391;49.184;2.418;2022-11-20T14:32:50;2.63;;;1.13;;
62353;SDS011;48391;49.184;2.418;2022-11-20T14:35:24;0.77;;;0.65;;
62353;SDS011;48391;49.184;2.418;2022-11-20T14:37:51;0.93;;;0.80;;
62353;SDS011;48391;49.184;2.418;2022-11-20T14:40:26;1.88;;;1.00;;
62353;SDS011;48391;49.184;2.418;2022-11-20T14:42:53;6.15;;;1.23;;
62353;SDS011;48391;49.184;2.418;2022-11-20T14:45:19;2.58;;;1.70;;
62353;SDS011;48391;49.184;2.418;2022-11-20T14:47:46;3.42;;;0.95;;
62353;SDS011;48391;49.184;2.418;2022-11-20T14:50:18;3.22;;;2.00;;
62353;SDS011;48391;49.184;2.418;2022-11-20T14:53:21;4.70;;;2.60;;
62353;SDS011;48391;49.184;2.418;2022-11-20T14:55:37;6.43;;;2.50;;
62353;SDS011;48391;49.184;2.418;2022-11-20T14:58:20;2.85;;;1.58;;
62353;SDS011;48391;49.184;2.418;2022-11-20T15:00:57;4.13;;;1.92;;
62353;SDS011;48391;49.184;2.418;2022-11-20T15:03:23;2.63;;;1.80;;
62353;SDS011;48391;49.184;2.418;2022-11-20T15:05:56;6.10;;;3.17;;
62353;SDS011;48391;49.184;2.418;2022-11-20T15:08:22;4.43;;;2.70;;
62353;SDS011;48391;49.184;2.418;2022-11-20T15:10:48;6.38;;;2.85;;
62353;SDS011;48391;49.184;2.418;2022-11-20T15:13:16;4.63;;;3.08;;
62353;SDS011;48391;49.184;2.418;2022-11-20T15:18:13;3.85;;;2.67;;
62353;SDS011;48391;49.184;2.418;2022-11-20T15:20:40;9.73;;;4.20;;
62353;SDS011;48391;49.184;2.418;2022-11-20T15:23:13;5.40;;;3.33;;
62353;SDS011;48391;49.184;2.418;2022-11-20T15:25:40;4.80;;;2.70;;
62353;SDS011;48391;49.184;2.418;2022-11-20T15:31:02;9.07;;;4.72;;
62353;SDS011;48391;49.184;2.418;2022-11-20T15:33:28;7.43;;;4.22;;
62353;SDS011;48391;49.184;2.418;2022-11-20T15:35:54;6.03;;;3.75;;
62353;SDS011;48391;49.184;2.418;2022-11-20T15:38:20;7.32;;;3.47;;
62353;SDS011;48391;49.184;2.418;2022-11-20T15:40:46;6.80;;;4.00;;
62353;SDS011;48391;49.184;2.418;2022-11-20T15:43:12;8.48;;;3.20;;
62353;SDS011;48391;49.184;2.418;2022-11-20T15:45:46;5.75;;;3.17;;
62353;SDS011;48391;49.184;2.418;2022-11-20T15:48:35;3.38;;;2.85;;
62353;SDS011;48391;49.184;2.418;2022-11-20T15:51:07;3.38;;;2.17;;
62353;SDS011;48391;49.184;2.418;2022-11-20T15:53:37;2.70;;;1.55;;
62353;SDS011;48391;49.184;2.418;2022-11-20T15:56:05;5.90;;;2.22;;
62353;SDS011;48391;49.184;2.418;2022-11-20T15:58:31;2.70;;;1.75;;
62353;SDS011;48391;49.184;2.418;2022-11-20T16:00:57;7.03;;;2.75;;
62353;SDS011;48391;49.184;2.418;2022-11-20T16:03:23;3.75;;;2.85;;
62353;SDS011;48391;49.184;2.418;2022-11-20T16:05:49;5.93;;;2.45;;
62353;SDS011;48391;49.184;2.418;2022-11-20T16:08:15;2.97;;;1.58;;
62353;SDS011;48391;49.184;2.418;2022-11-20T16:10:41;5.93;;;1.65;;
62353;SDS011;48391;49.184;2.418;2022-11-20T16:13:11;4.80;;;1.63;;
62353;SDS011;48391;49.184;2.418;2022-11-20T16:15:57;2.75;;;1.27;;
62353;SDS011;48391;49.184;2.418;2022-11-20T16:18:24;3.00;;;1.60;;
62353;SDS011;48391;49.184;2.418;2022-11-20T16:20:53;8.68;;;1.77;;
62353;SDS011;48391;49.184;2.418;2022-11-20T16:23:20;4.53;;;1.90;;
62353;SDS011;48391;49.184;2.418;2022-11-20T16:25:46;3.63;;;1.45;;
62353;SDS011;48391;49.184;2.418;2022-11-20T16:28:13;4.13;;;1.10;;
62353;SDS011;48391;49.184;2.418;2022-11-20T16:30:39;2.08;;;0.77;;
62353;SDS011;48391;49.184;2.418;2022-11-20T16:33:09;3.13;;;0.80;;
62353;SDS011;48391;49.184;2.418;2022-11-20T16:35:36;4.90;;;1.65;;
62353;SDS011;48391;49.184;2.418;2022-11-20T16:38:02;5.97;;;1.13;;
62353;SDS011;48391;49.184;2.418;2022-11-20T16:40:28;2.83;;;0.88;;
62353;SDS011;48391;49.184;2.418;2022-11-20T16:42:54;4.93;;;1.60;;
62353;SDS011;48391;49.184;2.418;2022-11-20T16:45:20;3.13;;;0.88;;
62353;SDS011;48391;49.184;2.418;2022-11-20T16:47:46;2.65;;;1.65;;